createdAt,value
2022-08-16T00:00:22.766Z,61
2022-08-16T00:15:02.773Z,61
2022-08-16T00:30:19.306Z,61
2022-08-16T00:45:08.810Z,61
2022-08-16T01:00:08.763Z,61
2022-08-16T01:15:02.469Z,62
2022-08-16T01:30:21.856Z,62
2022-08-16T01:45:02.757Z,62
2022-08-16T02:00:18.907Z,62
2022-08-16T02:15:03.105Z,62
2022-08-16T02:30:06.025Z,63
2022-08-16T02:45:02.670Z,63
2022-08-16T03:00:35.258Z,62
2022-08-16T03:15:03.600Z,62
2022-08-16T03:30:17.724Z,62
2022-08-16T03:45:04.875Z,62
2022-08-16T04:00:05.910Z,62
2022-08-16T04:15:07.876Z,62
2022-08-16T04:30:04.044Z,62
2022-08-16T04:45:02.819Z,62
2022-08-16T05:00:33.598Z,63
2022-08-16T05:15:03.337Z,63
2022-08-16T05:30:37.271Z,63
2022-08-16T05:45:07.169Z,63
2022-08-16T06:00:09.851Z,63
2022-08-16T06:15:09.772Z,64
2022-08-16T06:30:06.548Z,64
2022-08-16T06:45:02.954Z,64
2022-08-16T07:00:24.906Z,64
2022-08-16T07:15:08.594Z,64
2022-08-16T07:30:46.945Z,64
2022-08-16T07:45:02.489Z,63
2022-08-16T08:00:04.911Z,63
2022-08-16T08:15:04.376Z,63
2022-08-16T08:30:57.005Z,62
2022-08-16T08:45:02.807Z,62
2022-08-16T09:00:14.205Z,62
2022-08-16T09:15:03.978Z,61
2022-08-16T09:30:42.877Z,61
2022-08-16T09:45:17.280Z,60
2022-08-16T10:00:45.635Z,60
2022-08-16T10:15:02.944Z,59
2022-08-16T11:00:22.396Z,58
2022-08-16T11:15:17.942Z,58
2022-08-16T11:30:12.264Z,58
2022-08-16T11:45:02.734Z,57
2022-08-16T12:00:07.319Z,57
2022-08-16T12:15:04.172Z,57
2022-08-16T12:30:26.920Z,57
2022-08-16T12:45:04.307Z,56
2022-08-16T13:00:06.844Z,56
2022-08-16T13:15:04.408Z,55
2022-08-16T13:30:37.451Z,55
2022-08-16T13:45:02.608Z,55
2022-08-16T14:00:06.359Z,55
2022-08-16T14:15:03.229Z,54
2022-08-16T14:30:06.868Z,54
2022-08-16T14:45:03.530Z,54
2022-08-16T15:00:06.575Z,54
2022-08-16T15:15:13.245Z,53
2022-08-16T15:31:00.729Z,53
2022-08-16T15:45:12.391Z,53
2022-08-16T16:00:15.818Z,53
2022-08-16T16:15:07.341Z,53
2022-08-16T16:30:38.333Z,52
2022-08-16T16:45:03.259Z,52
2022-08-16T17:00:38.715Z,52
2022-08-16T17:15:04.454Z,52
2022-08-16T17:30:16.988Z,52
2022-08-16T17:45:03.845Z,52
2022-08-16T18:00:05.270Z,52
2022-08-16T18:15:03.069Z,52
2022-08-16T18:30:06.012Z,52
2022-08-16T18:45:03.219Z,52
2022-08-16T19:00:07.437Z,52
2022-08-16T19:15:04.689Z,53
2022-08-16T20:17:00.301Z,54
2022-08-16T20:30:06.914Z,54
2022-08-16T20:45:05.558Z,54
2022-08-16T21:00:05.447Z,55
2022-08-16T21:15:03.372Z,55
2022-08-16T21:30:09.393Z,55
2022-08-16T21:45:03.346Z,55
2022-08-16T22:00:06.216Z,56
2022-08-16T22:15:03.582Z,56
2022-08-16T22:30:08.059Z,56
2022-08-16T22:45:02.575Z,56
2022-08-16T23:00:05.215Z,56
2022-08-16T23:15:04.016Z,56
2022-08-16T23:30:04.462Z,56
2022-08-16T23:45:02.821Z,56
